sensor_id;sensor_type;location;lat;lon;timestamp;pressure;altitude;pressure_sealevel;temperature;humidity
13604;BME280;24578;48.264;11.436;2023-02-03T00:01:21;97201.78;;;2.97;100.00
13604;BME280;24578;48.264;11.436;2023-02-03T00:04:22;97210.81;;;3.11;100.00
13604;BME280;24578;48.264;11.436;2023-02-03T00:07:23;97212.53;;;3.10;100.00
13604;BME280;24578;48.264;11.436;2023-02-03T00:10:24;97219.56;;;3.02;100.00
13604;BME280;24578;48.264;11.436;2023-02-03T00:13:24;97219.47;;;3.05;100.00
13604;BME280;24578;48.264;11.436;2023-02-03T00:16:25;97208.13;;;3.15;100.00
13604;BME280;24578;48.264;11.436;2023-02-03T00:19:26;97200.16;;;3.26;100.00
13604;BME280;24578;48.264;11.436;2023-02-03T00:22:26;97201.38;;;3.13;100.00
13604;BME280;24578;48.264;11.436;2023-02-03T00:25:27;97201.09;;;3.22;100.00
13604;BME280;24578;48.264;11.436;2023-02-03T00:28:28;97201.38;;;3.13;100.00
13604;BME280;24578;48.264;11.436;2023-02-03T00:31:31;97201.38;;;3.13;100.00
13604;BME280;24578;48.264;11.436;2023-02-03T00:34:31;97192.59;;;3.22;100.00
13604;BME280;24578;48.264;11.436;2023-02-03T00:37:32;97203.66;;;3.22;100.00
13604;BME280;24578;48.264;11.436;2023-02-03T00:40:33;97195.03;;;3.26;100.00
13604;BME280;24578;48.264;11.436;2023-02-03T00:43:33;97190.06;;;3.20;100.00
13604;BME280;24578;48.264;11.436;2023-02-03T00:46:34;97191.59;;;3.27;100.00
13604;BME280;24578;48.264;11.436;2023-02-03T00:49:37;97193.34;;;3.25;100.00
13604;BME280;24578;48.264;11.436;2023-02-03T00:52:38;97200.22;;;3.23;100.00
13604;BME280;24578;48.264;11.436;2023-02-03T00:55:38;97198.66;;;3.19;100.00
13604;BME280;24578;48.264;11.436;2023-02-03T00:58:39;97197.13;;;3.12;100.00
13604;BME280;24578;48.264;11.436;2023-02-03T01:01:40;97208.91;;;3.19;100.00
13604;BME280;24578;48.264;11.436;2023-02-03T01:04:41;97208.16;;;3.14;100.00
13604;BME280;24578;48.264;11.436;2023-02-03T01:07:42;97195.97;;;3.24;100.00
13604;BME280;24578;48.264;11.436;2023-02-03T01:10:42;97199.13;;;3.32;100.00
13604;BME280;24578;48.264;11.436;2023-02-03T01:13:43;97205.19;;;3.29;100.00
13604;BME280;24578;48.264;11.436;2023-02-03T01:16:44;97213.81;;;3.27;100.00
13604;BME280;24578;48.264;11.436;2023-02-03T01:19:45;97207.97;;;3.22;100.00
13604;BME280;24578;48.264;11.436;2023-02-03T01:22:45;97199.00;;;3.37;100.00
13604;BME280;24578;48.264;11.436;2023-02-03T01:25:47;97201.84;;;3.27;100.00
13604;BME280;24578;48.264;11.436;2023-02-03T01:28:56;97201.75;;;3.30;100.00
13604;BME280;24578;48.264;11.436;2023-02-03T01:31:57;97187.66;;;3.45;100.00
13604;BME280;24578;48.264;11.436;2023-02-03T01:34:57;97191.16;;;3.43;100.00
13604;BME280;24578;48.264;11.436;2023-02-03T01:37:58;97184.53;;;3.35;100.00
13604;BME280;24578;48.264;11.436;2023-02-03T01:40:59;97194.97;;;3.29;100.00
13604;BME280;24578;48.264;11.436;2023-02-03T01:44:00;97190.22;;;3.47;100.00
13604;BME280;24578;48.264;11.436;2023-02-03T01:47:03;97188.16;;;3.28;100.00
13604;BME280;24578;48.264;11.436;2023-02-03T01:50:23;97179.75;;;3.23;100.00
13604;BME280;24578;48.264;11.436;2023-02-03T01:53:24;97173.16;;;3.46;100.00
13604;BME280;24578;48.264;11.436;2023-02-03T01:56:30;97175.81;;;3.43;100.00
13604;BME280;24578;48.264;11.436;2023-02-03T01:59:34;97171.63;;;3.40;100.00
13604;BME280;24578;48.264;11.436;2023-02-03T02:02:35;97174.84;;;3.47;100.00
13604;BME280;24578;48.264;11.436;2023-02-03T02:05:51;97166.59;;;3.37;100.00
13604;BME280;24578;48.264;11.436;2023-02-03T02:08:56;97172.50;;;3.39;100.00
13604;BME280;24578;48.264;11.436;2023-02-03T02:11:59;97170.25;;;3.28;100.00
13604;BME280;24578;48.264;11.436;2023-02-03T02:15:01;97180.97;;;3.41;100.00
13604;BME280;24578;48.264;11.436;2023-02-03T02:18:07;97176.78;;;3.39;100.00
13604;BME280;24578;48.264;11.436;2023-02-03T02:21:50;97159.72;;;3.39;100.00
13604;BME280;24578;48.264;11.436;2023-02-03T02:39:20;97186.13;;;3.40;100.00
13604;BME280;24578;48.264;11.436;2023-02-03T02:42:39;97181.22;;;3.62;100.00
13604;BME280;24578;48.264;11.436;2023-02-03T02:45:52;97185.69;;;3.55;100.00
13604;BME280;24578;48.264;11.436;2023-02-03T02:49:03;97166.97;;;3.53;100.00
13604;BME280;24578;48.264;11.436;2023-02-03T02:52:07;97162.34;;;3.66;100.00
13604;BME280;24578;48.264;11.436;2023-02-03T02:55:16;97159.28;;;3.53;100.00
13604;BME280;24578;48.264;11.436;2023-02-03T02:58:20;97151.81;;;3.47;100.00
13604;BME280;24578;48.264;11.436;2023-02-03T03:01:21;97156.13;;;3.45;100.00
13604;BME280;24578;48.264;11.436;2023-02-03T03:04:27;97167.91;;;3.50;100.00
13604;BME280;24578;48.264;11.436;2023-02-03T03:07:34;97157.81;;;3.46;100.00
13604;BME280;24578;48.264;11.436;2023-02-03T03:10:39;97165.25;;;3.54;100.00
13604;BME280;24578;48.264;11.436;2023-02-03T03:13:50;97162.94;;;3.44;100.00
13604;BME280;24578;48.264;11.436;2023-02-03T03:17:00;97157.59;;;3.54;100.00
13604;BME280;24578;48.264;11.436;2023-02-03T03:20:07;97162.34;;;3.66;100.00
13604;BME280;24578;48.264;11.436;2023-02-03T03:23:18;97160.22;;;3.50;100.00
13604;BME280;24578;48.264;11.436;2023-02-03T03:26:32;97151.72;;;3.50;100.00
13604;BME280;24578;48.264;11.436;2023-02-03T03:29:41;97136.16;;;3.56;100.00
13604;BME280;24578;48.264;11.436;2023-02-03T03:32:44;97143.31;;;3.45;100.00
13604;BME280;24578;48.264;11.436;2023-02-03T03:36:31;97144.00;;;3.52;100.00
13604;BME280;24578;48.264;11.436;2023-02-03T03:42:44;97123.19;;;3.62;100.00
13604;BME280;24578;48.264;11.436;2023-02-03T03:46:02;97139.53;;;3.58;100.00
13604;BME280;24578;48.264;11.436;2023-02-03T03:49:10;97155.31;;;3.73;100.00
13604;BME280;24578;48.264;11.436;2023-02-03T03:52:16;97142.16;;;3.55;100.00
13604;BME280;24578;48.264;11.436;2023-02-03T03:55:19;97142.91;;;3.59;100.00
13604;BME280;24578;48.264;11.436;2023-02-03T03:58:28;97164.19;;;3.61;100.00
13604;BME280;24578;48.264;11.436;2023-02-03T04:01:31;97150.19;;;3.73;100.00
13604;BME280;24578;48.264;11.436;2023-02-03T04:04:35;97142.00;;;3.61;100.00
13604;BME280;24578;48.264;11.436;2023-02-03T04:07:42;97142.44;;;3.46;100.00
13604;BME280;24578;48.264;11.436;2023-02-03T04:10:43;97145.59;;;3.54;100.00
13604;BME280;24578;48.264;11.436;2023-02-03T04:13:43;97173.25;;;3.43;100.00
13604;BME280;24578;48.264;11.436;2023-02-03T04:16:44;97175.44;;;3.57;100.00
13604;BME280;24578;48.264;11.436;2023-02-03T04:19:46;97183.41;;;3.46;100.00
13604;BME280;24578;48.264;11.436;2023-02-03T04:22:47;97183.31;;;3.49;100.00
13604;BME280;24578;48.264;11.436;2023-02-03T04:25:47;97185.91;;;3.47;100.00
13604;BME280;24578;48.264;11.436;2023-02-03T04:28:48;97191.78;;;3.51;100.00
13604;BME280;24578;48.264;11.436;2023-02-03T04:31:48;97187.66;;;3.45;100.00
13604;BME280;24578;48.264;11.436;2023-02-03T04:34:49;97173.84;;;3.51;100.00
13604;BME280;24578;48.264;11.436;2023-02-03T04:37:49;97175.53;;;3.52;100.00
13604;BME280;24578;48.264;11.436;2023-02-03T04:40:50;97185.09;;;3.47;100.00
13604;BME280;24578;48.264;11.436;2023-02-03T04:43:50;97197.13;;;3.43;100.00
13604;BME280;24578;48.264;11.436;2023-02-03T04:46:51;97200.69;;;3.38;100.00
13604;BME280;24578;48.264;11.436;2023-02-03T04:49:51;97180.78;;;3.47;100.00
13604;BME280;24578;48.264;11.436;2023-02-03T04:52:52;97189.56;;;3.39;100.00
13604;BME280;24578;48.264;11.436;2023-02-03T04:55:52;97196.13;;;3.49;100.00
13604;BME280;24578;48.264;11.436;2023-02-03T04:58:53;97182.81;;;3.36;100.00
13604;BME280;24578;48.264;11.436;2023-02-03T05:01:54;97180.31;;;3.34;100.00
13604;BME280;24578;48.264;11.436;2023-02-03T05:04:54;97184.38;;;3.42;100.00
13604;BME280;24578;48.264;11.436;2023-02-03T05:07:55;97175.00;;;3.41;100.00
13604;BME280;24578;48.264;11.436;2023-02-03T05:10:56;97191.00;;;3.49;100.00
13604;BME280;24578;48.264;11.436;2023-02-03T05:13:56;97200.78;;;3.34;100.00
13604;BME280;24578;48.264;11.436;2023-02-03T05:16:57;97207.56;;;3.35;100.00
13604;BME280;24578;48.264;11.436;2023-02-03T05:19:58;97189.84;;;3.29;100.00
13604;BME280;24578;48.264;11.436;2023-02-03T05:22:58;97183.13;;;3.25;100.00
13604;BME280;24578;48.264;11.436;2023-02-03T05:26:00;97182.41;;;3.20;100.00
13604;BME280;24578;48.264;11.436;2023-02-03T05:29:01;97177.06;;;3.28;100.00
13604;BME280;24578;48.264;11.436;2023-02-03T05:32:02;97163.22;;;3.35;100.00
13604;BME280;24578;48.264;11.436;2023-02-03T05:35:03;97156.44;;;3.34;100.00
13604;BME280;24578;48.264;11.436;2023-02-03T05:38:04;97154.28;;;3.50;100.00
13604;BME280;24578;48.264;11.436;2023-02-03T05:41:04;97145.19;;;3.40;100.00
13604;BME280;24578;48.264;11.436;2023-02-03T05:44:26;97142.75;;;3.35;100.00
13604;BME280;24578;48.264;11.436;2023-02-03T05:47:27;97138.47;;;3.35;100.00
13604;BME280;24578;48.264;11.436;2023-02-03T05:50:29;97134.28;;;3.33;100.00
13604;BME280;24578;48.264;11.436;2023-02-03T05:53:32;97140.03;;;3.41;100.00
13604;BME280;24578;48.264;11.436;2023-02-03T05:56:33;97146.59;;;3.50;100.00
13604;BME280;24578;48.264;11.436;2023-02-03T05:59:34;97154.81;;;3.31;100.00
13604;BME280;24578;48.264;11.436;2023-02-03T06:02:34;97151.94;;;3.42;100.00
13604;BME280;24578;48.264;11.436;2023-02-03T06:05:35;97165.84;;;3.33;100.00
13604;BME280;24578;48.264;11.436;2023-02-03T06:08:40;97156.28;;;3.40;100.00
13604;BME280;24578;48.264;11.436;2023-02-03T06:11:40;97165.78;;;3.35;100.00
13604;BME280;24578;48.264;11.436;2023-02-03T06:14:42;97156.34;;;3.37;100.00
13604;BME280;24578;48.264;11.436;2023-02-03T06:17:44;97152.16;;;3.34;100.00
13604;BME280;24578;48.264;11.436;2023-02-03T06:20:45;97169.88;;;3.41;100.00
13604;BME280;24578;48.264;11.436;2023-02-03T06:23:45;97168.41;;;3.33;100.00
13604;BME280;24578;48.264;11.436;2023-02-03T06:26:46;97167.03;;;3.52;100.00
13604;BME280;24578;48.264;11.436;2023-02-03T06:29:47;97157.38;;;3.60;100.00
13604;BME280;24578;48.264;11.436;2023-02-03T06:32:48;97141.38;;;3.53;100.00
13604;BME280;24578;48.264;11.436;2023-02-03T06:35:48;97152.09;;;3.36;100.00
13604;BME280;24578;48.264;11.436;2023-02-03T06:38:49;97146.59;;;3.50;100.00
13604;BME280;24578;48.264;11.436;2023-02-03T06:41:49;97144.94;;;3.49;100.00
13604;BME280;24578;48.264;11.436;2023-02-03T06:44:51;97169.09;;;3.39;100.00
13604;BME280;24578;48.264;11.436;2023-02-03T06:47:51;97168.28;;;3.37;100.00
13604;BME280;24578;48.264;11.436;2023-02-03T06:50:52;97177.34;;;3.48;100.00
13604;BME280;24578;48.264;11.436;2023-02-03T06:53:52;97180.22;;;3.38;100.00
13604;BME280;24578;48.264;11.436;2023-02-03T06:56:53;97193.66;;;3.46;100.00
13604;BME280;24578;48.264;11.436;2023-02-03T06:59:53;97174.19;;;3.40;100.00
13604;BME280;24578;48.264;11.436;2023-02-03T07:02:56;97160.31;;;3.47;100.00
13604;BME280;24578;48.264;11.436;2023-02-03T07:05:57;97159.34;;;3.52;100.00
13604;BME280;24578;48.264;11.436;2023-02-03T07:08:59;97150.88;;;3.49;100.00
13604;BME280;24578;48.264;11.436;2023-02-03T07:11:59;97148.16;;;3.54;100.00
13604;BME280;24578;48.264;11.436;2023-02-03T07:15:00;97161.91;;;3.52;100.00
13604;BME280;24578;48.264;11.436;2023-02-03T07:18:00;97139.75;;;3.50;100.00
13604;BME280;24578;48.264;11.436;2023-02-03T07:21:04;97136.91;;;3.60;100.00
13604;BME280;24578;48.264;11.436;2023-02-03T07:24:04;97129.19;;;3.61;100.00
13604;BME280;24578;48.264;11.436;2023-02-03T07:27:05;97136.72;;;3.66;100.00
13604;BME280;24578;48.264;11.436;2023-02-03T07:30:06;97118.06;;;3.62;100.00
13604;BME280;24578;48.264;11.436;2023-02-03T07:33:06;97127.06;;;3.76;100.00
13604;BME280;24578;48.264;11.436;2023-02-03T07:36:08;97131.06;;;3.85;100.00
13604;BME280;24578;48.264;11.436;2023-02-03T07:39:09;97123.09;;;3.65;100.00
13604;BME280;24578;48.264;11.436;2023-02-03T07:42:10;97123.53;;;3.80;100.00
13604;BME280;24578;48.264;11.436;2023-02-03T07:45:12;97129.28;;;3.87;100.00
13604;BME280;24578;48.264;11.436;2023-02-03T07:48:13;97118.50;;;4.04;100.00
13604;BME280;24578;48.264;11.436;2023-02-03T07:51:13;97099.44;;;4.13;100.00
13604;BME280;24578;48.264;11.436;2023-02-03T07:54:14;97111.41;;;4.12;100.00
13604;BME280;24578;48.264;11.436;2023-02-03T07:57:14;97123.47;;;4.08;100.00
13604;BME280;24578;48.264;11.436;2023-02-03T08:00:15;97122.19;;;4.22;100.00
13604;BME280;24578;48.264;11.436;2023-02-03T08:03:16;97119.25;;;4.34;100.00
13604;BME280;24578;48.264;11.436;2023-02-03T08:06:17;97119.88;;;4.41;100.00
13604;BME280;24578;48.264;11.436;2023-02-03T08:09:18;97120.94;;;4.34;100.00
13604;BME280;24578;48.264;11.436;2023-02-03T08:12:18;97127.66;;;4.38;100.00
13604;BME280;24578;48.264;11.436;2023-02-03T08:15:19;97140.75;;;4.29;100.00
13604;BME280;24578;48.264;11.436;2023-02-03T08:18:19;97143.03;;;4.38;100.00
13604;BME280;24578;48.264;11.436;2023-02-03T08:21:20;97133.75;;;4.34;100.00
13604;BME280;24578;48.264;11.436;2023-02-03T08:24:20;97144.19;;;4.29;100.00
13604;BME280;24578;48.264;11.436;2023-02-03T08:27:21;97159.38;;;4.35;100.00
13604;BME280;24578;48.264;11.436;2023-02-03T08:30:22;97158.09;;;4.47;100.00
13604;BME280;24578;48.264;11.436;2023-02-03T08:33:23;97154.13;;;4.38;100.00
13604;BME280;24578;48.264;11.436;2023-02-03T08:36:24;97164.72;;;4.54;100.00
13604;BME280;24578;48.264;11.436;2023-02-03T08:39:24;97163.53;;;4.38;100.00
13604;BME280;24578;48.264;11.436;2023-02-03T08:42:26;97150.41;;;4.47;100.00
13604;BME280;24578;48.264;11.436;2023-02-03T08:45:27;97148.69;;;4.48;100.00
13604;BME280;24578;48.264;11.436;2023-02-03T08:48:28;97136.59;;;4.51;100.00
13604;BME280;24578;48.264;11.436;2023-02-03T08:51:28;97141.03;;;4.73;100.00
13604;BME280;24578;48.264;11.436;2023-02-03T08:54:29;97125.41;;;4.54;100.00
13604;BME280;24578;48.264;11.436;2023-02-03T08:57:34;97124.56;;;4.53;100.00
13604;BME280;24578;48.264;11.436;2023-02-03T09:00:35;97128.13;;;4.49;100.00
13604;BME280;24578;48.264;11.436;2023-02-03T09:03:37;97127.06;;;4.80;100.00
13604;BME280;24578;48.264;11.436;2023-02-03T09:06:38;97122.66;;;4.84;100.00
13604;BME280;24578;48.264;11.436;2023-02-03T09:09:38;97129.47;;;4.85;100.00
13604;BME280;24578;48.264;11.436;2023-02-03T09:12:39;97124.56;;;5.04;100.00
13604;BME280;24578;48.264;11.436;2023-02-03T09:15:39;97119.72;;;4.95;100.00
13604;BME280;24578;48.264;11.436;2023-02-03T09:18:40;97129.06;;;4.97;100.00
13604;BME280;24578;48.264;11.436;2023-02-03T09:21:40;97124.56;;;5.04;100.00
13604;BME280;24578;48.264;11.436;2023-02-03T09:24:41;97131.91;;;4.90;100.00
13604;BME280;24578;48.264;11.436;2023-02-03T09:27:42;97112.75;;;4.98;100.00
13604;BME280;24578;48.264;11.436;2023-02-03T09:30:42;97117.13;;;4.96;100.00
13604;BME280;24578;48.264;11.436;2023-02-03T09:33:43;97130.50;;;5.05;100.00
13604;BME280;24578;48.264;11.436;2023-02-03T09:36:43;97134.19;;;5.21;100.00
13604;BME280;24578;48.264;11.436;2023-02-03T09:39:44;97123.22;;;5.17;100.00
13604;BME280;24578;48.264;11.436;2023-02-03T09:42:54;97118.97;;;5.16;100.00
13604;BME280;24578;48.264;11.436;2023-02-03T09:46:25;97138.09;;;5.31;100.00
13604;BME280;24578;48.264;11.436;2023-02-03T09:49:40;97131.94;;;5.37;100.00
13604;BME280;24578;48.264;11.436;2023-02-03T09:52:41;97129.59;;;5.53;100.00
13604;BME280;24578;48.264;11.436;2023-02-03T09:55:45;97109.22;;;5.26;100.00
13604;BME280;24578;48.264;11.436;2023-02-03T09:58:46;97111.41;;;5.36;100.00
13604;BME280;24578;48.264;11.436;2023-02-03T10:01:59;97095.41;;;5.53;100.00
13604;BME280;24578;48.264;11.436;2023-02-03T10:05:32;97115.72;;;5.35;100.00
13604;BME280;24578;48.264;11.436;2023-02-03T10:18:32;97126.66;;;5.40;100.00
13604;BME280;24578;48.264;11.436;2023-02-03T10:21:46;97115.66;;;5.60;100.00
13604;BME280;24578;48.264;11.436;2023-02-03T10:28:00;97118.06;;;5.63;100.00
13604;BME280;24578;48.264;11.436;2023-02-03T10:31:16;97110.91;;;5.49;100.00
13604;BME280;24578;48.264;11.436;2023-02-03T10:34:17;97113.50;;;5.72;100.00
13604;BME280;24578;48.264;11.436;2023-02-03T10:37:42;97130.34;;;5.79;100.00
13604;BME280;24578;48.264;11.436;2023-02-03T10:40:45;97117.84;;;5.70;100.00
13604;BME280;24578;48.264;11.436;2023-02-03T10:43:49;97104.88;;;5.95;100.00
13604;BME280;24578;48.264;11.436;2023-02-03T10:46:53;97117.44;;;5.81;100.00
13604;BME280;24578;48.264;11.436;2023-02-03T10:49:56;97118.81;;;5.89;100.00
13604;BME280;24578;48.264;11.436;2023-02-03T10:53:20;97118.84;;;5.66;100.00
13604;BME280;24578;48.264;11.436;2023-02-03T10:56:25;97125.78;;;5.86;100.00
13604;BME280;24578;48.264;11.436;2023-02-03T10:59:29;97126.22;;;5.97;100.00
13604;BME280;24578;48.264;11.436;2023-02-03T11:02:30;97119.94;;;6.27;100.00
13604;BME280;24578;48.264;11.436;2023-02-03T11:05:32;97104.19;;;5.91;100.00
13604;BME280;24578;48.264;11.436;2023-02-03T11:08:35;97086.66;;;6.01;100.00
13604;BME280;24578;48.264;11.436;2023-02-03T11:11:36;97087.25;;;6.08;100.00
13604;BME280;24578;48.264;11.436;2023-02-03T11:14:49;97081.47;;;6.03;100.00
13604;BME280;24578;48.264;11.436;2023-02-03T11:17:50;97077.81;;;6.08;100.00
13604;BME280;24578;48.264;11.436;2023-02-03T11:20:51;97078.31;;;6.17;100.00
13604;BME280;24578;48.264;11.436;2023-02-03T11:27:15;97069.34;;;6.27;100.00
13604;BME280;24578;48.264;11.436;2023-02-03T11:30:24;97044.34;;;6.31;100.00
13604;BME280;24578;48.264;11.436;2023-02-03T11:33:27;97061.53;;;6.08;100.00
13604;BME280;24578;48.264;11.436;2023-02-03T11:36:32;97047.47;;;6.17;100.00
13604;BME280;24578;48.264;11.436;2023-02-03T11:39:34;97044.13;;;6.35;100.00
13604;BME280;24578;48.264;11.436;2023-02-03T11:42:38;97037.06;;;6.40;100.00
13604;BME280;24578;48.264;11.436;2023-02-03T11:45:44;97023.59;;;6.15;100.00
13604;BME280;24578;48.264;11.436;2023-02-03T12:02:16;97028.25;;;5.62;100.00
13604;BME280;24578;48.264;11.436;2023-02-03T12:18:48;96994.44;;;5.93;100.00
13604;BME280;24578;48.264;11.436;2023-02-03T12:22:27;96983.06;;;5.99;100.00
13604;BME280;24578;48.264;11.436;2023-02-03T12:25:53;96968.44;;;6.01;100.00
13604;BME280;24578;48.264;11.436;2023-02-03T12:32:34;96945.03;;;6.28;100.00
13604;BME280;24578;48.264;11.436;2023-02-03T12:35:49;96952.63;;;6.50;100.00
13604;BME280;24578;48.264;11.436;2023-02-03T12:39:00;96942.69;;;6.43;100.00
13604;BME280;24578;48.264;11.436;2023-02-03T12:45:23;96933.09;;;6.65;100.00
13604;BME280;24578;48.264;11.436;2023-02-03T12:48:38;96913.88;;;6.92;100.00
13604;BME280;24578;48.264;11.436;2023-02-03T12:51:50;96915.44;;;6.77;100.00
13604;BME280;24578;48.264;11.436;2023-02-03T12:55:02;96912.94;;;6.75;100.00
13604;BME280;24578;48.264;11.436;2023-02-03T12:58:29;96908.38;;;6.99;100.00
13604;BME280;24578;48.264;11.436;2023-02-03T13:01:55;96898.72;;;6.85;100.00
13604;BME280;24578;48.264;11.436;2023-02-03T13:05:19;96882.09;;;6.93;100.00
13604;BME280;24578;48.264;11.436;2023-02-03T13:08:48;96875.00;;;6.79;100.00
13604;BME280;24578;48.264;11.436;2023-02-03T13:11:57;96877.13;;;6.70;100.00
13604;BME280;24578;48.264;11.436;2023-02-03T13:18:34;96902.56;;;6.58;100.00
13604;BME280;24578;48.264;11.436;2023-02-03T13:21:36;96901.06;;;6.73;100.00
13604;BME280;24578;48.264;11.436;2023-02-03T13:24:42;96891.50;;;6.55;100.00
13604;BME280;24578;48.264;11.436;2023-02-03T13:34:50;96902.13;;;6.09;100.00
13604;BME280;24578;48.264;11.436;2023-02-03T13:38:18;96883.69;;;6.00;100.00
13604;BME280;24578;48.264;11.436;2023-02-03T13:44:36;96866.91;;;5.91;100.00
13604;BME280;24578;48.264;11.436;2023-02-03T13:47:44;96853.63;;;5.81;100.00
13604;BME280;24578;48.264;11.436;2023-02-03T13:50:48;96866.00;;;5.92;100.00
13604;BME280;24578;48.264;11.436;2023-02-03T13:53:58;96863.56;;;5.89;100.00
13604;BME280;24578;48.264;11.436;2023-02-03T13:57:17;96872.59;;;5.78;100.00
13604;BME280;24578;48.264;11.436;2023-02-03T14:03:45;96850.03;;;5.64;100.00
13604;BME280;24578;48.264;11.436;2023-02-03T14:10:15;96819.34;;;5.61;100.00
13604;BME280;24578;48.264;11.436;2023-02-03T14:13:20;96810.06;;;5.59;100.00
13604;BME280;24578;48.264;11.436;2023-02-03T14:16:23;96810.19;;;5.56;100.00
13604;BME280;24578;48.264;11.436;2023-02-03T14:22:25;96836.06;;;5.51;100.00
13604;BME280;24578;48.264;11.436;2023-02-03T14:25:27;96829.94;;;5.54;100.00
13604;BME280;24578;48.264;11.436;2023-02-03T14:28:43;96848.69;;;5.56;100.00
13604;BME280;24578;48.264;11.436;2023-02-03T14:32:04;96855.59;;;5.76;100.00
13604;BME280;24578;48.264;11.436;2023-02-03T14:35:16;96858.16;;;5.55;100.00
13604;BME280;24578;48.264;11.436;2023-02-03T14:38:18;96857.50;;;5.50;100.00
13604;BME280;24578;48.264;11.436;2023-02-03T14:41:34;96835.69;;;5.40;100.00
13604;BME280;24578;48.264;11.436;2023-02-03T14:45:02;96847.88;;;5.34;100.00
13604;BME280;24578;48.264;11.436;2023-02-03T15:04:36;96803.22;;;5.39;100.00
13604;BME280;24578;48.264;11.436;2023-02-03T15:07:42;96807.50;;;5.38;100.00
13604;BME280;24578;48.264;11.436;2023-02-03T15:10:48;96808.13;;;5.43;100.00
13604;BME280;24578;48.264;11.436;2023-02-03T15:13:49;96804.19;;;5.36;100.00
13604;BME280;24578;48.264;11.436;2023-02-03T15:16:53;96810.25;;;5.33;100.00
13604;BME280;24578;48.264;11.436;2023-02-03T15:19:55;96829.13;;;5.53;100.00
13604;BME280;24578;48.264;11.436;2023-02-03T15:22:55;96823.81;;;5.37;100.00
13604;BME280;24578;48.264;11.436;2023-02-03T15:26:02;96834.13;;;5.36;100.00
13604;BME280;24578;48.264;11.436;2023-02-03T15:29:22;96837.25;;;5.22;100.00
13604;BME280;24578;48.264;11.436;2023-02-03T15:32:33;96837.91;;;5.27;100.00
13604;BME280;24578;48.264;11.436;2023-02-03T15:35:40;96835.78;;;5.16;100.00
13604;BME280;24578;48.264;11.436;2023-02-03T15:38:50;96828.53;;;5.26;100.00
13604;BME280;24578;48.264;11.436;2023-02-03T15:41:57;96827.13;;;5.39;100.00
13604;BME280;24578;48.264;11.436;2023-02-03T15:45:15;96819.19;;;5.25;100.00
13604;BME280;24578;48.264;11.436;2023-02-03T15:51:44;96828.66;;;5.23;100.00
13604;BME280;24578;48.264;11.436;2023-02-03T15:54:53;96813.34;;;5.21;100.00
13604;BME280;24578;48.264;11.436;2023-02-03T15:57:58;96817.03;;;5.14;100.00
13604;BME280;24578;48.264;11.436;2023-02-03T16:01:03;96836.94;;;5.09;100.00
13604;BME280;24578;48.264;11.436;2023-02-03T16:04:10;96833.81;;;5.02;100.00
13604;BME280;24578;48.264;11.436;2023-02-03T16:07:18;96830.19;;;5.06;100.00
13604;BME280;24578;48.264;11.436;2023-02-03T16:10:30;96818.44;;;5.00;100.00
13604;BME280;24578;48.264;11.436;2023-02-03T16:13:34;96850.88;;;5.03;100.00
13604;BME280;24578;48.264;11.436;2023-02-03T16:16:50;96856.78;;;5.05;100.00
13604;BME280;24578;48.264;11.436;2023-02-03T16:23:24;96810.59;;;5.05;100.00
13604;BME280;24578;48.264;11.436;2023-02-03T16:26:30;96825.31;;;5.00;100.00
13604;BME280;24578;48.264;11.436;2023-02-03T16:29:34;96840.72;;;5.00;100.00
13604;BME280;24578;48.264;11.436;2023-02-03T16:33:13;96852.97;;;4.93;100.00
13604;BME280;24578;48.264;11.436;2023-02-03T16:36:37;96854.81;;;4.90;100.00
13604;BME280;24578;48.264;11.436;2023-02-03T16:39:56;96883.03;;;4.90;100.00
13604;BME280;24578;48.264;11.436;2023-02-03T16:43:16;96896.69;;;4.90;100.00
13604;BME280;24578;48.264;11.436;2023-02-03T16:46:36;96890.97;;;4.83;100.00
13604;BME280;24578;48.264;11.436;2023-02-03T16:49:55;96887.81;;;4.77;100.00
13604;BME280;24578;48.264;11.436;2023-02-03T16:53:17;96892.28;;;4.94;100.00
13604;BME280;24578;48.264;11.436;2023-02-03T16:56:19;96909.88;;;4.81;100.00
13604;BME280;24578;48.264;11.436;2023-02-03T16:59:19;96891.50;;;4.92;100.00
13604;BME280;24578;48.264;11.436;2023-02-03T17:02:20;96892.63;;;4.84;100.00
13604;BME280;24578;48.264;11.436;2023-02-03T17:05:20;96882.59;;;4.78;100.00
13604;BME280;24578;48.264;11.436;2023-02-03T17:08:24;96894.41;;;4.82;100.00
13604;BME280;24578;48.264;11.436;2023-02-03T17:11:25;96898.84;;;4.79;100.00
13604;BME280;24578;48.264;11.436;2023-02-03T17:14:26;96895.97;;;4.64;100.00
13604;BME280;24578;48.264;11.436;2023-02-03T17:17:27;96900.81;;;4.72;100.00
13604;BME280;24578;48.264;11.436;2023-02-03T17:20:28;96889.16;;;4.63;100.00
13604;BME280;24578;48.264;11.436;2023-02-03T17:23:28;96895.59;;;4.51;100.00
13604;BME280;24578;48.264;11.436;2023-02-03T17:26:29;96889.00;;;4.68;100.00
13604;BME280;24578;48.264;11.436;2023-02-03T17:29:29;96893.34;;;4.66;100.00
13604;BME280;24578;48.264;11.436;2023-02-03T17:32:30;96871.13;;;4.42;100.00
13604;BME280;24578;48.264;11.436;2023-02-03T17:35:30;96875.25;;;4.47;100.00
13604;BME280;24578;48.264;11.436;2023-02-03T17:38:39;96889.00;;;4.44;100.00
13604;BME280;24578;48.264;11.436;2023-02-03T17:41:40;96878.66;;;4.47;100.00
13604;BME280;24578;48.264;11.436;2023-02-03T17:44:40;96875.38;;;4.44;100.00
13604;BME280;24578;48.264;11.436;2023-02-03T17:47:41;96894.19;;;4.42;100.00
13604;BME280;24578;48.264;11.436;2023-02-03T17:50:41;96877.56;;;4.53;100.00
13604;BME280;24578;48.264;11.436;2023-02-03T17:53:42;96888.28;;;4.40;100.00
13604;BME280;24578;48.264;11.436;2023-02-03T17:56:43;96884.91;;;4.40;100.00
13604;BME280;24578;48.264;11.436;2023-02-03T17:59:46;96884.22;;;4.35;100.00
13604;BME280;24578;48.264;11.436;2023-02-03T18:02:51;96875.66;;;4.36;100.00